sensor_id;sensor_type;location;lat;lon;timestamp;P1;durP1;ratioP1;P2;durP2;ratioP2
68757;SDS011;55747;51.998;4.466;2023-02-05T00:07:08;28.40;;;14.43;;
68757;SDS011;55747;51.998;4.466;2023-02-05T00:23:45;25.17;;;12.05;;
68757;SDS011;55747;51.998;4.466;2023-02-05T00:51:11;13.13;;;4.70;;
68757;SDS011;55747;51.998;4.466;2023-02-05T00:53:44;7.07;;;3.90;;
68757;SDS011;55747;51.998;4.466;2023-02-05T00:57:11;10.52;;;3.67;;
68757;SDS011;55747;51.998;4.466;2023-02-05T00:59:55;8.82;;;3.50;;
68757;SDS011;55747;51.998;4.466;2023-02-05T01:02:40;6.82;;;3.40;;
68757;SDS011;55747;51.998;4.466;2023-02-05T01:05:43;8.77;;;3.20;;
68757;SDS011;55747;51.998;4.466;2023-02-05T01:14:41;7.82;;;2.85;;
68757;SDS011;55747;51.998;4.466;2023-02-05T01:17:41;7.53;;;2.60;;
68757;SDS011;55747;51.998;4.466;2023-02-05T01:20:38;5.55;;;2.22;;
68757;SDS011;55747;51.998;4.466;2023-02-05T01:26:40;8.32;;;2.42;;
68757;SDS011;55747;51.998;4.466;2023-02-05T01:39:02;3.97;;;1.70;;
68757;SDS011;55747;51.998;4.466;2023-02-05T03:11:37;12.80;;;4.05;;
68757;SDS011;55747;51.998;4.466;2023-02-05T03:17:28;12.65;;;4.25;;
68757;SDS011;55747;51.998;4.466;2023-02-05T03:25:50;14.10;;;5.68;;
68757;SDS011;55747;51.998;4.466;2023-02-05T03:55:22;14.20;;;7.30;;
68757;SDS011;55747;51.998;4.466;2023-02-05T04:08:04;16.60;;;8.98;;
68757;SDS011;55747;51.998;4.466;2023-02-05T04:10:30;16.90;;;8.88;;
68757;SDS011;55747;51.998;4.466;2023-02-05T04:12:55;20.63;;;9.25;;
68757;SDS011;55747;51.998;4.466;2023-02-05T04:15:23;18.50;;;9.25;;
68757;SDS011;55747;51.998;4.466;2023-02-05T04:17:49;19.88;;;10.48;;
68757;SDS011;55747;51.998;4.466;2023-02-05T04:20:15;20.13;;;9.93;;
68757;SDS011;55747;51.998;4.466;2023-02-05T04:22:40;10.57;;;6.28;;
68757;SDS011;55747;51.998;4.466;2023-02-05T04:25:06;14.50;;;7.75;;
68757;SDS011;55747;51.998;4.466;2023-02-05T04:27:36;11.82;;;6.65;;
68757;SDS011;55747;51.998;4.466;2023-02-05T04:30:11;9.18;;;5.47;;
68757;SDS011;55747;51.998;4.466;2023-02-05T04:32:36;9.60;;;4.50;;
68757;SDS011;55747;51.998;4.466;2023-02-05T04:35:02;10.00;;;4.38;;
68757;SDS011;55747;51.998;4.466;2023-02-05T04:37:30;9.27;;;3.50;;
68757;SDS011;55747;51.998;4.466;2023-02-05T04:39:55;7.57;;;2.80;;
68757;SDS011;55747;51.998;4.466;2023-02-05T04:42:30;8.45;;;2.30;;
68757;SDS011;55747;51.998;4.466;2023-02-05T04:44:55;6.78;;;2.50;;
68757;SDS011;55747;51.998;4.466;2023-02-05T04:47:20;10.98;;;2.10;;
68757;SDS011;55747;51.998;4.466;2023-02-05T04:49:52;13.02;;;2.10;;
68757;SDS011;55747;51.998;4.466;2023-02-05T04:52:35;7.00;;;1.45;;
68757;SDS011;55747;51.998;4.466;2023-02-05T04:55:04;11.38;;;1.60;;
68757;SDS011;55747;51.998;4.466;2023-02-05T04:57:35;9.30;;;1.40;;
68757;SDS011;55747;51.998;4.466;2023-02-05T05:00:03;15.23;;;1.65;;
68757;SDS011;55747;51.998;4.466;2023-02-05T05:02:29;12.05;;;1.60;;
68757;SDS011;55747;51.998;4.466;2023-02-05T05:04:55;16.67;;;1.73;;
68757;SDS011;55747;51.998;4.466;2023-02-05T05:07:21;15.68;;;1.88;;
68757;SDS011;55747;51.998;4.466;2023-02-05T05:09:46;12.25;;;1.45;;
68757;SDS011;55747;51.998;4.466;2023-02-05T05:12:11;21.88;;;2.50;;
68757;SDS011;55747;51.998;4.466;2023-02-05T05:14:37;13.00;;;1.67;;
68757;SDS011;55747;51.998;4.466;2023-02-05T05:17:05;13.30;;;1.65;;
68757;SDS011;55747;51.998;4.466;2023-02-05T05:19:31;21.13;;;2.30;;
68757;SDS011;55747;51.998;4.466;2023-02-05T05:21:58;13.02;;;1.50;;
68757;SDS011;55747;51.998;4.466;2023-02-05T05:24:32;18.38;;;2.15;;
68757;SDS011;55747;51.998;4.466;2023-02-05T05:26:58;26.23;;;2.03;;
68757;SDS011;55747;51.998;4.466;2023-02-05T05:29:32;18.00;;;2.28;;
68757;SDS011;55747;51.998;4.466;2023-02-05T05:32:00;14.70;;;1.95;;
68757;SDS011;55747;51.998;4.466;2023-02-05T05:34:41;15.40;;;1.60;;
68757;SDS011;55747;51.998;4.466;2023-02-05T05:37:09;13.93;;;1.40;;
68757;SDS011;55747;51.998;4.466;2023-02-05T05:39:34;15.77;;;1.77;;
68757;SDS011;55747;51.998;4.466;2023-02-05T05:42:19;12.05;;;1.50;;
68757;SDS011;55747;51.998;4.466;2023-02-05T05:45:03;13.35;;;1.50;;
68757;SDS011;55747;51.998;4.466;2023-02-05T05:47:36;11.98;;;1.45;;
68757;SDS011;55747;51.998;4.466;2023-02-05T05:50:03;11.48;;;1.10;;
68757;SDS011;55747;51.998;4.466;2023-02-05T05:52:38;6.65;;;1.38;;
68757;SDS011;55747;51.998;4.466;2023-02-05T05:55:07;12.02;;;1.45;;
68757;SDS011;55747;51.998;4.466;2023-02-05T05:57:32;13.77;;;1.50;;
68757;SDS011;55747;51.998;4.466;2023-02-05T05:59:58;12.43;;;1.38;;
68757;SDS011;55747;51.998;4.466;2023-02-05T06:02:25;11.85;;;1.73;;
68757;SDS011;55747;51.998;4.466;2023-02-05T06:04:54;16.40;;;1.88;;
68757;SDS011;55747;51.998;4.466;2023-02-05T06:07:25;12.75;;;1.70;;
68757;SDS011;55747;51.998;4.466;2023-02-05T06:09:53;14.05;;;1.50;;
68757;SDS011;55747;51.998;4.466;2023-02-05T06:12:21;16.23;;;1.60;;
68757;SDS011;55747;51.998;4.466;2023-02-05T06:14:49;13.85;;;1.70;;
68757;SDS011;55747;51.998;4.466;2023-02-05T06:17:14;15.32;;;1.52;;
68757;SDS011;55747;51.998;4.466;2023-02-05T06:19:39;17.33;;;2.08;;
68757;SDS011;55747;51.998;4.466;2023-02-05T06:22:05;16.98;;;1.65;;
68757;SDS011;55747;51.998;4.466;2023-02-05T06:24:33;18.42;;;2.63;;
68757;SDS011;55747;51.998;4.466;2023-02-05T06:26:58;13.18;;;1.85;;
68757;SDS011;55747;51.998;4.466;2023-02-05T06:29:26;17.42;;;2.33;;
68757;SDS011;55747;51.998;4.466;2023-02-05T06:31:54;18.13;;;2.33;;
68757;SDS011;55747;51.998;4.466;2023-02-05T06:34:24;14.05;;;2.45;;
68757;SDS011;55747;51.998;4.466;2023-02-05T06:36:50;23.60;;;2.22;;
68757;SDS011;55747;51.998;4.466;2023-02-05T06:39:15;20.38;;;2.17;;
68757;SDS011;55747;51.998;4.466;2023-02-05T06:41:41;25.10;;;2.30;;
68757;SDS011;55747;51.998;4.466;2023-02-05T06:44:06;23.83;;;2.10;;
68757;SDS011;55747;51.998;4.466;2023-02-05T06:46:34;13.02;;;2.55;;
68757;SDS011;55747;51.998;4.466;2023-02-05T06:48:59;20.17;;;2.22;;
68757;SDS011;55747;51.998;4.466;2023-02-05T06:51:47;14.05;;;1.92;;
68757;SDS011;55747;51.998;4.466;2023-02-05T06:56:46;18.73;;;2.35;;
68757;SDS011;55747;51.998;4.466;2023-02-05T06:59:12;22.77;;;2.10;;
68757;SDS011;55747;51.998;4.466;2023-02-05T07:01:37;22.30;;;2.17;;
68757;SDS011;55747;51.998;4.466;2023-02-05T07:04:08;19.50;;;2.45;;
68757;SDS011;55747;51.998;4.466;2023-02-05T07:06:50;24.30;;;2.33;;
68757;SDS011;55747;51.998;4.466;2023-02-05T07:19:00;15.77;;;2.22;;
68757;SDS011;55747;51.998;4.466;2023-02-05T07:21:28;19.10;;;2.28;;
68757;SDS011;55747;51.998;4.466;2023-02-05T07:24:01;21.63;;;2.50;;
68757;SDS011;55747;51.998;4.466;2023-02-05T07:51:32;20.77;;;2.40;;
68757;SDS011;55747;51.998;4.466;2023-02-05T08:44:27;23.92;;;3.50;;
68757;SDS011;55747;51.998;4.466;2023-02-05T08:47:34;26.65;;;3.10;;
68757;SDS011;55747;51.998;4.466;2023-02-05T08:50:39;28.20;;;3.30;;
68757;SDS011;55747;51.998;4.466;2023-02-05T08:53:40;33.55;;;3.72;;
68757;SDS011;55747;51.998;4.466;2023-02-05T09:03:42;30.75;;;3.53;;
68757;SDS011;55747;51.998;4.466;2023-02-05T10:53:20;30.63;;;4.43;;
68757;SDS011;55747;51.998;4.466;2023-02-05T10:56:38;30.67;;;3.73;;
68757;SDS011;55747;51.998;4.466;2023-02-05T11:03:36;29.60;;;4.65;;
68757;SDS011;55747;51.998;4.466;2023-02-05T11:06:56;25.92;;;4.13;;
68757;SDS011;55747;51.998;4.466;2023-02-05T11:13:51;28.98;;;3.80;;
68757;SDS011;55747;51.998;4.466;2023-02-05T11:28:05;20.77;;;2.80;;
68757;SDS011;55747;51.998;4.466;2023-02-05T12:02:42;32.20;;;4.13;;
68757;SDS011;55747;51.998;4.466;2023-02-05T12:05:52;26.02;;;3.22;;
68757;SDS011;55747;51.998;4.466;2023-02-05T13:34:49;18.73;;;2.97;;
68757;SDS011;55747;51.998;4.466;2023-02-05T15:07:17;28.58;;;4.07;;
68757;SDS011;55747;51.998;4.466;2023-02-05T15:10:21;31.60;;;3.72;;
68757;SDS011;55747;51.998;4.466;2023-02-05T15:27:04;31.20;;;3.85;;
68757;SDS011;55747;51.998;4.466;2023-02-05T15:30:46;32.15;;;4.03;;
68757;SDS011;55747;51.998;4.466;2023-02-05T15:37:24;19.95;;;3.55;;
68757;SDS011;55747;51.998;4.466;2023-02-05T15:46:44;32.83;;;4.53;;
68757;SDS011;55747;51.998;4.466;2023-02-05T15:52:54;29.25;;;4.25;;
68757;SDS011;55747;51.998;4.466;2023-02-05T15:58:38;23.98;;;3.35;;
68757;SDS011;55747;51.998;4.466;2023-02-05T16:01:36;25.73;;;3.97;;
68757;SDS011;55747;51.998;4.466;2023-02-05T16:04:32;35.35;;;4.57;;
68757;SDS011;55747;51.998;4.466;2023-02-05T16:10:38;31.23;;;3.80;;
68757;SDS011;55747;51.998;4.466;2023-02-05T16:13:30;34.72;;;3.75;;
68757;SDS011;55747;51.998;4.466;2023-02-05T16:19:26;34.63;;;4.20;;
68757;SDS011;55747;51.998;4.466;2023-02-05T16:22:56;28.98;;;4.03;;
68757;SDS011;55747;51.998;4.466;2023-02-05T16:33:03;28.15;;;3.72;;
68757;SDS011;55747;51.998;4.466;2023-02-05T16:42:42;32.45;;;4.30;;
68757;SDS011;55747;51.998;4.466;2023-02-05T16:45:19;29.80;;;4.15;;
68757;SDS011;55747;51.998;4.466;2023-02-05T16:58:16;34.40;;;4.03;;
68757;SDS011;55747;51.998;4.466;2023-02-05T17:00:55;35.95;;;4.20;;
68757;SDS011;55747;51.998;4.466;2023-02-05T17:03:27;44.40;;;4.82;;
68757;SDS011;55747;51.998;4.466;2023-02-05T17:06:02;41.70;;;4.85;;
68757;SDS011;55747;51.998;4.466;2023-02-05T17:08:35;34.30;;;3.97;;
68757;SDS011;55747;51.998;4.466;2023-02-05T17:11:03;38.90;;;4.13;;
68757;SDS011;55747;51.998;4.466;2023-02-05T17:13:39;35.72;;;4.85;;
68757;SDS011;55747;51.998;4.466;2023-02-05T17:19:04;50.35;;;5.68;;
68757;SDS011;55747;51.998;4.466;2023-02-05T17:21:45;44.72;;;4.63;;
68757;SDS011;55747;51.998;4.466;2023-02-05T17:24:13;37.95;;;5.20;;
68757;SDS011;55747;51.998;4.466;2023-02-05T17:26:40;38.85;;;4.65;;
68757;SDS011;55747;51.998;4.466;2023-02-05T17:29:13;48.90;;;4.78;;
68757;SDS011;55747;51.998;4.466;2023-02-05T17:31:39;33.90;;;4.07;;
68757;SDS011;55747;51.998;4.466;2023-02-05T17:34:05;39.63;;;6.85;;
68757;SDS011;55747;51.998;4.466;2023-02-05T17:36:30;33.28;;;4.05;;
68757;SDS011;55747;51.998;4.466;2023-02-05T17:38:58;40.10;;;3.95;;
68757;SDS011;55747;51.998;4.466;2023-02-05T17:41:27;43.38;;;4.38;;
68757;SDS011;55747;51.998;4.466;2023-02-05T17:44:15;29.92;;;4.00;;
68757;SDS011;55747;51.998;4.466;2023-02-05T17:46:41;40.33;;;4.95;;
68757;SDS011;55747;51.998;4.466;2023-02-05T17:49:07;41.88;;;4.78;;
68757;SDS011;55747;51.998;4.466;2023-02-05T17:51:33;35.75;;;4.20;;
68757;SDS011;55747;51.998;4.466;2023-02-05T17:54:09;35.58;;;4.72;;
68757;SDS011;55747;51.998;4.466;2023-02-05T17:56:40;35.10;;;4.30;;
68757;SDS011;55747;51.998;4.466;2023-02-05T17:59:27;35.20;;;4.00;;
68757;SDS011;55747;51.998;4.466;2023-02-05T18:01:52;33.35;;;4.88;;
68757;SDS011;55747;51.998;4.466;2023-02-05T18:04:17;40.90;;;5.40;;
68757;SDS011;55747;51.998;4.466;2023-02-05T18:06:48;28.52;;;4.28;;
68757;SDS011;55747;51.998;4.466;2023-02-05T18:09:14;32.42;;;4.57;;
68757;SDS011;55747;51.998;4.466;2023-02-05T18:14:25;39.53;;;4.68;;
68757;SDS011;55747;51.998;4.466;2023-02-05T18:17:14;40.78;;;4.85;;
68757;SDS011;55747;51.998;4.466;2023-02-05T18:19:43;31.23;;;4.38;;
68757;SDS011;55747;51.998;4.466;2023-02-05T18:22:08;32.53;;;4.15;;
68757;SDS011;55747;51.998;4.466;2023-02-05T18:28:10;30.30;;;4.60;;
68757;SDS011;55747;51.998;4.466;2023-02-05T18:30:44;42.13;;;4.80;;
68757;SDS011;55747;51.998;4.466;2023-02-05T18:33:36;38.72;;;5.80;;
68757;SDS011;55747;51.998;4.466;2023-02-05T18:36:02;26.67;;;4.55;;
68757;SDS011;55747;51.998;4.466;2023-02-05T18:38:38;30.17;;;4.53;;
68757;SDS011;55747;51.998;4.466;2023-02-05T18:41:24;31.17;;;4.85;;
68757;SDS011;55747;51.998;4.466;2023-02-05T18:44:08;32.58;;;4.00;;
68757;SDS011;55747;51.998;4.466;2023-02-05T18:46:38;35.15;;;4.35;;
68757;SDS011;55747;51.998;4.466;2023-02-05T18:49:19;36.25;;;4.50;;
68757;SDS011;55747;51.998;4.466;2023-02-05T18:52:09;26.25;;;4.20;;
68757;SDS011;55747;51.998;4.466;2023-02-05T18:54:59;31.77;;;3.90;;
68757;SDS011;55747;51.998;4.466;2023-02-05T18:57:41;31.48;;;5.25;;
68757;SDS011;55747;51.998;4.466;2023-02-05T19:00:12;28.05;;;3.88;;
68757;SDS011;55747;51.998;4.466;2023-02-05T19:02:45;34.47;;;5.00;;
68757;SDS011;55747;51.998;4.466;2023-02-05T19:05:27;25.73;;;4.13;;
68757;SDS011;55747;51.998;4.466;2023-02-05T19:08:08;34.28;;;3.95;;
68757;SDS011;55747;51.998;4.466;2023-02-05T19:10:43;38.63;;;4.38;;
68757;SDS011;55747;51.998;4.466;2023-02-05T19:13:08;37.00;;;3.72;;
68757;SDS011;55747;51.998;4.466;2023-02-05T19:15:46;41.60;;;4.85;;
68757;SDS011;55747;51.998;4.466;2023-02-05T19:18:33;34.45;;;3.80;;
68757;SDS011;55747;51.998;4.466;2023-02-05T19:21:16;28.42;;;3.80;;
68757;SDS011;55747;51.998;4.466;2023-02-05T19:23:51;32.53;;;3.92;;
68757;SDS011;55747;51.998;4.466;2023-02-05T19:26:23;37.67;;;4.10;;
68757;SDS011;55747;51.998;4.466;2023-02-05T19:29:15;36.28;;;3.97;;
68757;SDS011;55747;51.998;4.466;2023-02-05T19:32:01;40.25;;;4.15;;
68757;SDS011;55747;51.998;4.466;2023-02-05T19:34:29;35.55;;;3.53;;
68757;SDS011;55747;51.998;4.466;2023-02-05T19:37:10;32.70;;;4.65;;
68757;SDS011;55747;51.998;4.466;2023-02-05T19:39:44;36.45;;;5.40;;
68757;SDS011;55747;51.998;4.466;2023-02-05T19:42:12;39.27;;;4.47;;
68757;SDS011;55747;51.998;4.466;2023-02-05T19:44:37;32.25;;;4.55;;
68757;SDS011;55747;51.998;4.466;2023-02-05T19:47:03;30.30;;;4.15;;
68757;SDS011;55747;51.998;4.466;2023-02-05T19:49:29;35.17;;;3.97;;
68757;SDS011;55747;51.998;4.466;2023-02-05T19:51:57;41.17;;;4.57;;
68757;SDS011;55747;51.998;4.466;2023-02-05T19:54:31;40.45;;;4.47;;
68757;SDS011;55747;51.998;4.466;2023-02-05T19:56:59;43.03;;;4.43;;
68757;SDS011;55747;51.998;4.466;2023-02-05T19:59:32;38.70;;;4.78;;
68757;SDS011;55747;51.998;4.466;2023-02-05T20:01:57;35.33;;;3.60;;
68757;SDS011;55747;51.998;4.466;2023-02-05T20:04:28;33.50;;;3.15;;
68757;SDS011;55747;51.998;4.466;2023-02-05T20:07:01;33.13;;;4.30;;
68757;SDS011;55747;51.998;4.466;2023-02-05T20:09:32;31.60;;;3.90;;
68757;SDS011;55747;51.998;4.466;2023-02-05T20:12:05;33.17;;;4.10;;
68757;SDS011;55747;51.998;4.466;2023-02-05T20:14:31;45.05;;;4.55;;
68757;SDS011;55747;51.998;4.466;2023-02-05T20:16:56;33.85;;;4.72;;
68757;SDS011;55747;51.998;4.466;2023-02-05T20:19:24;30.08;;;3.70;;
68757;SDS011;55747;51.998;4.466;2023-02-05T20:22:00;43.35;;;3.85;;
68757;SDS011;55747;51.998;4.466;2023-02-05T20:24:31;33.35;;;3.60;;
68757;SDS011;55747;51.998;4.466;2023-02-05T20:27:09;35.42;;;4.70;;
68757;SDS011;55747;51.998;4.466;2023-02-05T20:29:35;29.42;;;4.57;;
68757;SDS011;55747;51.998;4.466;2023-02-05T20:32:22;29.75;;;4.38;;
68757;SDS011;55747;51.998;4.466;2023-02-05T20:34:47;35.65;;;4.93;;
68757;SDS011;55747;51.998;4.466;2023-02-05T20:37:14;31.73;;;3.55;;
68757;SDS011;55747;51.998;4.466;2023-02-05T20:39:41;34.33;;;4.38;;
68757;SDS011;55747;51.998;4.466;2023-02-05T20:42:08;41.33;;;4.82;;
68757;SDS011;55747;51.998;4.466;2023-02-05T20:44:34;34.20;;;4.43;;
68757;SDS011;55747;51.998;4.466;2023-02-05T20:47:07;35.78;;;4.78;;
68757;SDS011;55747;51.998;4.466;2023-02-05T20:49:39;37.03;;;4.68;;
68757;SDS011;55747;51.998;4.466;2023-02-05T20:52:06;42.80;;;4.22;;
68757;SDS011;55747;51.998;4.466;2023-02-05T20:54:34;36.05;;;4.22;;
68757;SDS011;55747;51.998;4.466;2023-02-05T20:57:00;30.33;;;3.90;;
68757;SDS011;55747;51.998;4.466;2023-02-05T20:59:26;42.45;;;4.95;;
68757;SDS011;55747;51.998;4.466;2023-02-05T21:01:52;39.15;;;4.57;;
68757;SDS011;55747;51.998;4.466;2023-02-05T21:04:19;35.08;;;4.72;;
68757;SDS011;55747;51.998;4.466;2023-02-05T21:06:46;32.40;;;4.47;;
68757;SDS011;55747;51.998;4.466;2023-02-05T21:09:12;33.83;;;4.60;;
68757;SDS011;55747;51.998;4.466;2023-02-05T21:11:39;45.17;;;4.90;;
68757;SDS011;55747;51.998;4.466;2023-02-05T21:14:06;41.80;;;4.75;;
68757;SDS011;55747;51.998;4.466;2023-02-05T21:16:33;29.85;;;4.22;;
68757;SDS011;55747;51.998;4.466;2023-02-05T21:19:00;30.83;;;5.07;;
68757;SDS011;55747;51.998;4.466;2023-02-05T21:21:30;40.67;;;5.22;;
68757;SDS011;55747;51.998;4.466;2023-02-05T21:23:57;46.28;;;4.88;;
68757;SDS011;55747;51.998;4.466;2023-02-05T21:26:29;37.00;;;4.53;;
68757;SDS011;55747;51.998;4.466;2023-02-05T21:28:59;36.53;;;4.13;;
68757;SDS011;55747;51.998;4.466;2023-02-05T21:31:27;32.20;;;4.78;;
68757;SDS011;55747;51.998;4.466;2023-02-05T21:34:00;33.85;;;4.07;;
68757;SDS011;55747;51.998;4.466;2023-02-05T21:36:27;29.00;;;4.65;;
68757;SDS011;55747;51.998;4.466;2023-02-05T21:38:52;37.47;;;4.75;;
68757;SDS011;55747;51.998;4.466;2023-02-05T21:41:18;40.85;;;5.43;;
68757;SDS011;55747;51.998;4.466;2023-02-05T21:43:47;36.13;;;5.32;;
68757;SDS011;55747;51.998;4.466;2023-02-05T21:46:14;50.03;;;5.28;;
68757;SDS011;55747;51.998;4.466;2023-02-05T21:48:39;42.05;;;5.28;;
68757;SDS011;55747;51.998;4.466;2023-02-05T21:51:09;42.08;;;5.63;;
68757;SDS011;55747;51.998;4.466;2023-02-05T21:53:37;32.22;;;4.90;;
68757;SDS011;55747;51.998;4.466;2023-02-05T21:56:04;37.10;;;5.43;;
68757;SDS011;55747;51.998;4.466;2023-02-05T21:58:32;29.25;;;4.70;;
68757;SDS011;55747;51.998;4.466;2023-02-05T22:01:07;34.08;;;4.97;;
68757;SDS011;55747;51.998;4.466;2023-02-05T22:03:37;28.77;;;4.28;;
68757;SDS011;55747;51.998;4.466;2023-02-05T22:06:02;40.38;;;5.40;;
68757;SDS011;55747;51.998;4.466;2023-02-05T22:08:30;33.53;;;4.65;;
68757;SDS011;55747;51.998;4.466;2023-02-05T22:11:03;40.25;;;3.92;;
68757;SDS011;55747;51.998;4.466;2023-02-05T22:13:31;36.42;;;4.50;;
68757;SDS011;55747;51.998;4.466;2023-02-05T22:16:06;29.20;;;4.43;;
68757;SDS011;55747;51.998;4.466;2023-02-05T22:18:33;42.55;;;4.88;;
68757;SDS011;55747;51.998;4.466;2023-02-05T22:21:03;34.13;;;4.30;;
68757;SDS011;55747;51.998;4.466;2023-02-05T22:23:29;35.45;;;4.45;;
68757;SDS011;55747;51.998;4.466;2023-02-05T22:25:55;44.60;;;5.47;;
68757;SDS011;55747;51.998;4.466;2023-02-05T22:28:20;34.58;;;5.20;;
68757;SDS011;55747;51.998;4.466;2023-02-05T22:30:45;45.53;;;4.22;;
68757;SDS011;55747;51.998;4.466;2023-02-05T22:33:11;42.67;;;5.10;;
68757;SDS011;55747;51.998;4.466;2023-02-05T22:35:36;40.95;;;4.88;;
68757;SDS011;55747;51.998;4.466;2023-02-05T22:38:01;42.45;;;4.50;;
68757;SDS011;55747;51.998;4.466;2023-02-05T22:40:26;43.95;;;4.70;;
68757;SDS011;55747;51.998;4.466;2023-02-05T22:42:52;38.92;;;4.78;;
68757;SDS011;55747;51.998;4.466;2023-02-05T22:45:17;42.90;;;4.82;;
68757;SDS011;55747;51.998;4.466;2023-02-05T22:47:42;29.55;;;4.05;;
68757;SDS011;55747;51.998;4.466;2023-02-05T22:50:08;22.20;;;3.40;;
68757;SDS011;55747;51.998;4.466;2023-02-05T22:52:33;43.88;;;4.10;;
68757;SDS011;55747;51.998;4.466;2023-02-05T22:54:58;39.90;;;4.20;;
68757;SDS011;55747;51.998;4.466;2023-02-05T22:57:24;34.45;;;4.30;;
68757;SDS011;55747;51.998;4.466;2023-02-05T22:59:49;35.30;;;3.83;;
68757;SDS011;55747;51.998;4.466;2023-02-05T23:02:14;44.15;;;3.45;;
68757;SDS011;55747;51.998;4.466;2023-02-05T23:04:40;48.25;;;4.10;;
68757;SDS011;55747;51.998;4.466;2023-02-05T23:07:05;37.72;;;3.80;;
68757;SDS011;55747;51.998;4.466;2023-02-05T23:09:30;40.42;;;4.10;;
68757;SDS011;55747;51.998;4.466;2023-02-05T23:11:55;37.28;;;3.67;;
68757;SDS011;55747;51.998;4.466;2023-02-05T23:14:21;37.25;;;4.38;;
68757;SDS011;55747;51.998;4.466;2023-02-05T23:16:46;32.92;;;4.05;;
68757;SDS011;55747;51.998;4.466;2023-02-05T23:19:13;34.92;;;3.83;;
68757;SDS011;55747;51.998;4.466;2023-02-05T23:21:43;23.02;;;2.75;;
68757;SDS011;55747;51.998;4.466;2023-02-05T23:24:09;38.97;;;3.83;;
68757;SDS011;55747;51.998;4.466;2023-02-05T23:26:36;25.92;;;3.45;;
68757;SDS011;55747;51.998;4.466;2023-02-05T23:29:06;38.77;;;4.10;;
68757;SDS011;55747;51.998;4.466;2023-02-05T23:31:33;28.70;;;4.13;;
68757;SDS011;55747;51.998;4.466;2023-02-05T23:33:59;40.78;;;4.13;;
68757;SDS011;55747;51.998;4.466;2023-02-05T23:36:24;36.83;;;3.83;;
68757;SDS011;55747;51.998;4.466;2023-02-05T23:38:50;39.25;;;4.03;;
68757;SDS011;55747;51.998;4.466;2023-02-05T23:41:15;38.10;;;3.78;;
68757;SDS011;55747;51.998;4.466;2023-02-05T23:44:00;30.35;;;4.18;;
68757;SDS011;55747;51.998;4.466;2023-02-05T23:46:35;34.75;;;4.70;;
68757;SDS011;55747;51.998;4.466;2023-02-05T23:49:04;47.22;;;4.55;;
68757;SDS011;55747;51.998;4.466;2023-02-05T23:51:30;38.95;;;3.65;;
68757;SDS011;55747;51.998;4.466;2023-02-05T23:53:55;36.75;;;4.00;;
68757;SDS011;55747;51.998;4.466;2023-02-05T23:56:21;32.85;;;4.10;;
68757;SDS011;55747;51.998;4.466;2023-02-05T23:58:46;33.45;;;4.18;;
